sensor_id;sensor_type;location;lat;lon;timestamp;temperature;humidity
4826;DHT22;2427;50.934;6.776;2022-10-16T00:01:18;14.00;1.00
4826;DHT22;2427;50.934;6.776;2022-10-16T00:03:45;14.10;1.00
4826;DHT22;2427;50.934;6.776;2022-10-16T00:06:11;14.00;1.00
4826;DHT22;2427;50.934;6.776;2022-10-16T00:08:38;14.00;1.00
4826;DHT22;2427;50.934;6.776;2022-10-16T00:11:06;14.00;1.00
4826;DHT22;2427;50.934;6.776;2022-10-16T00:13:34;14.00;1.00
4826;DHT22;2427;50.934;6.776;2022-10-16T00:16:01;13.90;1.00
4826;DHT22;2427;50.934;6.776;2022-10-16T00:18:27;13.90;1.00
4826;DHT22;2427;50.934;6.776;2022-10-16T00:20:53;14.00;1.00
4826;DHT22;2427;50.934;6.776;2022-10-16T00:23:20;13.90;1.00
4826;DHT22;2427;50.934;6.776;2022-10-16T00:25:58;13.90;1.00
4826;DHT22;2427;50.934;6.776;2022-10-16T00:28:24;13.90;1.00
4826;DHT22;2427;50.934;6.776;2022-10-16T00:30:50;13.90;1.00
4826;DHT22;2427;50.934;6.776;2022-10-16T00:33:16;13.80;1.00
4826;DHT22;2427;50.934;6.776;2022-10-16T00:35:41;13.80;1.00
4826;DHT22;2427;50.934;6.776;2022-10-16T00:38:07;13.70;1.00
4826;DHT22;2427;50.934;6.776;2022-10-16T00:40:32;13.70;1.00
4826;DHT22;2427;50.934;6.776;2022-10-16T00:42:58;13.60;1.00
4826;DHT22;2427;50.934;6.776;2022-10-16T00:45:24;13.60;1.00
4826;DHT22;2427;50.934;6.776;2022-10-16T00:47:50;13.50;1.00
4826;DHT22;2427;50.934;6.776;2022-10-16T00:50:30;13.50;1.00
4826;DHT22;2427;50.934;6.776;2022-10-16T00:52:57;13.50;1.00
4826;DHT22;2427;50.934;6.776;2022-10-16T00:55:24;13.40;1.00
4826;DHT22;2427;50.934;6.776;2022-10-16T00:57:51;13.40;1.00
4826;DHT22;2427;50.934;6.776;2022-10-16T01:10:44;13.30;1.00
4826;DHT22;2427;50.934;6.776;2022-10-16T01:13:28;13.20;1.00
4826;DHT22;2427;50.934;6.776;2022-10-16T01:21:05;13.20;1.00
4826;DHT22;2427;50.934;6.776;2022-10-16T01:24:00;13.10;1.00
4826;DHT22;2427;50.934;6.776;2022-10-16T01:31:57;13.10;1.50
4826;DHT22;2427;50.934;6.776;2022-10-16T01:34:41;13.10;7.40
4826;DHT22;2427;50.934;6.776;2022-10-16T01:37:15;13.00;6.60
4826;DHT22;2427;50.934;6.776;2022-10-16T01:39:43;13.10;9.10
4826;DHT22;2427;50.934;6.776;2022-10-16T01:42:24;13.10;8.10
4826;DHT22;2427;50.934;6.776;2022-10-16T01:44:54;13.10;6.10
4826;DHT22;2427;50.934;6.776;2022-10-16T01:47:23;13.10;1.00
4826;DHT22;2427;50.934;6.776;2022-10-16T01:49:51;13.10;1.00
4826;DHT22;2427;50.934;6.776;2022-10-16T01:52:21;13.10;1.00
4826;DHT22;2427;50.934;6.776;2022-10-16T01:54:51;13.00;1.00
4826;DHT22;2427;50.934;6.776;2022-10-16T01:57:19;13.00;1.00
4826;DHT22;2427;50.934;6.776;2022-10-16T01:59:49;13.10;1.00
4826;DHT22;2427;50.934;6.776;2022-10-16T02:02:17;13.10;1.00
4826;DHT22;2427;50.934;6.776;2022-10-16T02:04:53;13.10;1.00
4826;DHT22;2427;50.934;6.776;2022-10-16T02:07:20;13.20;1.00
4826;DHT22;2427;50.934;6.776;2022-10-16T02:09:46;13.20;1.00
4826;DHT22;2427;50.934;6.776;2022-10-16T02:12:32;13.30;1.00
4826;DHT22;2427;50.934;6.776;2022-10-16T02:14:58;13.30;1.00
4826;DHT22;2427;50.934;6.776;2022-10-16T02:17:24;13.30;1.00
4826;DHT22;2427;50.934;6.776;2022-10-16T02:19:52;13.30;1.00
4826;DHT22;2427;50.934;6.776;2022-10-16T02:22:36;13.30;1.00
4826;DHT22;2427;50.934;6.776;2022-10-16T02:25:17;13.30;1.00
4826;DHT22;2427;50.934;6.776;2022-10-16T02:30:56;13.40;1.00
4826;DHT22;2427;50.934;6.776;2022-10-16T02:33:23;13.40;1.00
4826;DHT22;2427;50.934;6.776;2022-10-16T02:35:51;13.40;1.00
4826;DHT22;2427;50.934;6.776;2022-10-16T02:38:18;13.40;1.00
4826;DHT22;2427;50.934;6.776;2022-10-16T02:40:45;13.40;1.00
4826;DHT22;2427;50.934;6.776;2022-10-16T02:43:11;13.40;1.00
4826;DHT22;2427;50.934;6.776;2022-10-16T02:45:37;13.40;1.00
4826;DHT22;2427;50.934;6.776;2022-10-16T02:48:03;13.40;1.00
4826;DHT22;2427;50.934;6.776;2022-10-16T02:50:28;13.40;1.00
4826;DHT22;2427;50.934;6.776;2022-10-16T02:52:54;13.50;1.00
4826;DHT22;2427;50.934;6.776;2022-10-16T02:55:20;13.50;1.00
4826;DHT22;2427;50.934;6.776;2022-10-16T02:57:45;13.50;1.00
4826;DHT22;2427;50.934;6.776;2022-10-16T03:00:13;13.50;1.00
4826;DHT22;2427;50.934;6.776;2022-10-16T03:02:40;13.50;1.00
4826;DHT22;2427;50.934;6.776;2022-10-16T03:05:06;13.50;1.00
4826;DHT22;2427;50.934;6.776;2022-10-16T03:07:31;13.50;1.00
4826;DHT22;2427;50.934;6.776;2022-10-16T03:09:57;13.40;1.00
4826;DHT22;2427;50.934;6.776;2022-10-16T03:12:28;13.40;1.00
4826;DHT22;2427;50.934;6.776;2022-10-16T03:14:54;13.40;1.00
4826;DHT22;2427;50.934;6.776;2022-10-16T03:17:20;13.40;1.00
4826;DHT22;2427;50.934;6.776;2022-10-16T03:19:45;13.30;1.00
4826;DHT22;2427;50.934;6.776;2022-10-16T03:22:11;13.30;1.00
4826;DHT22;2427;50.934;6.776;2022-10-16T03:24:36;13.30;1.00
4826;DHT22;2427;50.934;6.776;2022-10-16T03:27:02;13.30;1.00
4826;DHT22;2427;50.934;6.776;2022-10-16T03:29:27;13.30;1.00
4826;DHT22;2427;50.934;6.776;2022-10-16T03:31:55;13.30;1.00
4826;DHT22;2427;50.934;6.776;2022-10-16T03:34:20;13.30;1.00
4826;DHT22;2427;50.934;6.776;2022-10-16T03:36:46;13.30;1.00
4826;DHT22;2427;50.934;6.776;2022-10-16T03:39:11;13.30;1.00
4826;DHT22;2427;50.934;6.776;2022-10-16T03:41:37;13.40;1.00
4826;DHT22;2427;50.934;6.776;2022-10-16T03:44:03;13.40;1.00
4826;DHT22;2427;50.934;6.776;2022-10-16T03:46:28;13.40;1.00
4826;DHT22;2427;50.934;6.776;2022-10-16T03:48:55;13.40;1.00
4826;DHT22;2427;50.934;6.776;2022-10-16T03:51:20;13.50;1.00
4826;DHT22;2427;50.934;6.776;2022-10-16T03:53:46;13.50;1.00
4826;DHT22;2427;50.934;6.776;2022-10-16T03:56:11;13.60;1.00
4826;DHT22;2427;50.934;6.776;2022-10-16T03:58:37;13.60;1.00
4826;DHT22;2427;50.934;6.776;2022-10-16T04:01:03;13.60;1.00
4826;DHT22;2427;50.934;6.776;2022-10-16T04:03:28;13.60;1.00
4826;DHT22;2427;50.934;6.776;2022-10-16T04:05:54;13.60;1.00
4826;DHT22;2427;50.934;6.776;2022-10-16T04:08:20;13.60;1.00
4826;DHT22;2427;50.934;6.776;2022-10-16T04:10:46;13.70;1.00
4826;DHT22;2427;50.934;6.776;2022-10-16T04:13:12;13.70;1.00
4826;DHT22;2427;50.934;6.776;2022-10-16T04:15:38;13.80;1.00
4826;DHT22;2427;50.934;6.776;2022-10-16T04:18:04;13.80;1.00
4826;DHT22;2427;50.934;6.776;2022-10-16T04:20:29;13.80;1.00
4826;DHT22;2427;50.934;6.776;2022-10-16T04:22:55;13.80;1.00
4826;DHT22;2427;50.934;6.776;2022-10-16T04:25:21;13.80;1.00
4826;DHT22;2427;50.934;6.776;2022-10-16T04:27:47;13.70;1.00
4826;DHT22;2427;50.934;6.776;2022-10-16T04:30:13;13.70;1.00
4826;DHT22;2427;50.934;6.776;2022-10-16T04:32:39;13.70;1.00
4826;DHT22;2427;50.934;6.776;2022-10-16T04:35:05;13.70;1.00
4826;DHT22;2427;50.934;6.776;2022-10-16T04:37:31;13.70;1.00
4826;DHT22;2427;50.934;6.776;2022-10-16T04:39:56;13.70;1.00
4826;DHT22;2427;50.934;6.776;2022-10-16T04:42:22;13.60;1.00
4826;DHT22;2427;50.934;6.776;2022-10-16T04:44:48;13.60;1.00
4826;DHT22;2427;50.934;6.776;2022-10-16T04:47:13;13.50;1.00
4826;DHT22;2427;50.934;6.776;2022-10-16T04:49:39;13.50;1.00
4826;DHT22;2427;50.934;6.776;2022-10-16T04:52:05;13.50;1.00
4826;DHT22;2427;50.934;6.776;2022-10-16T04:54:31;13.40;1.00
4826;DHT22;2427;50.934;6.776;2022-10-16T04:56:56;13.40;1.00
4826;DHT22;2427;50.934;6.776;2022-10-16T04:59:22;13.40;1.00
4826;DHT22;2427;50.934;6.776;2022-10-16T05:01:48;13.40;1.00
4826;DHT22;2427;50.934;6.776;2022-10-16T05:04:14;13.50;1.00
4826;DHT22;2427;50.934;6.776;2022-10-16T05:06:40;13.50;1.00
4826;DHT22;2427;50.934;6.776;2022-10-16T05:09:06;13.50;1.00
4826;DHT22;2427;50.934;6.776;2022-10-16T05:11:32;13.50;1.00
4826;DHT22;2427;50.934;6.776;2022-10-16T05:13:58;13.50;1.00
4826;DHT22;2427;50.934;6.776;2022-10-16T05:16:24;13.60;1.00
4826;DHT22;2427;50.934;6.776;2022-10-16T05:18:51;13.60;1.00
4826;DHT22;2427;50.934;6.776;2022-10-16T05:21:17;13.50;1.00
4826;DHT22;2427;50.934;6.776;2022-10-16T05:23:43;13.50;1.00
4826;DHT22;2427;50.934;6.776;2022-10-16T05:26:08;13.50;1.00
4826;DHT22;2427;50.934;6.776;2022-10-16T05:28:35;13.50;1.00
4826;DHT22;2427;50.934;6.776;2022-10-16T05:31:08;13.50;1.00
4826;DHT22;2427;50.934;6.776;2022-10-16T05:33:34;13.50;1.00
4826;DHT22;2427;50.934;6.776;2022-10-16T05:36:04;13.50;1.00
4826;DHT22;2427;50.934;6.776;2022-10-16T05:38:30;13.50;1.00
4826;DHT22;2427;50.934;6.776;2022-10-16T05:40:56;13.50;1.00
4826;DHT22;2427;50.934;6.776;2022-10-16T05:43:22;13.60;1.00
4826;DHT22;2427;50.934;6.776;2022-10-16T05:45:58;13.60;1.00
4826;DHT22;2427;50.934;6.776;2022-10-16T05:48:24;13.60;1.00
4826;DHT22;2427;50.934;6.776;2022-10-16T05:51:05;13.50;1.00
4826;DHT22;2427;50.934;6.776;2022-10-16T05:53:33;13.50;1.00
4826;DHT22;2427;50.934;6.776;2022-10-16T05:55:59;13.50;1.00
4826;DHT22;2427;50.934;6.776;2022-10-16T05:58:28;13.40;1.00
4826;DHT22;2427;50.934;6.776;2022-10-16T06:01:05;13.40;1.00
4826;DHT22;2427;50.934;6.776;2022-10-16T06:03:32;13.30;1.00
4826;DHT22;2427;50.934;6.776;2022-10-16T06:05:58;13.30;1.00
4826;DHT22;2427;50.934;6.776;2022-10-16T06:08:24;13.20;1.00
4826;DHT22;2427;50.934;6.776;2022-10-16T06:11:01;13.20;1.00
4826;DHT22;2427;50.934;6.776;2022-10-16T06:13:27;13.20;1.00
4826;DHT22;2427;50.934;6.776;2022-10-16T06:15:52;13.20;1.00
4826;DHT22;2427;50.934;6.776;2022-10-16T06:18:18;13.30;1.00
4826;DHT22;2427;50.934;6.776;2022-10-16T06:20:43;13.30;1.00
4826;DHT22;2427;50.934;6.776;2022-10-16T06:23:09;13.30;1.00
4826;DHT22;2427;50.934;6.776;2022-10-16T06:25:34;13.40;1.00
4826;DHT22;2427;50.934;6.776;2022-10-16T06:28:00;13.40;1.00
4826;DHT22;2427;50.934;6.776;2022-10-16T06:30:25;13.50;1.00
4826;DHT22;2427;50.934;6.776;2022-10-16T06:32:51;13.50;1.00
4826;DHT22;2427;50.934;6.776;2022-10-16T06:35:16;13.60;1.00
4826;DHT22;2427;50.934;6.776;2022-10-16T06:37:42;13.60;1.00
4826;DHT22;2427;50.934;6.776;2022-10-16T06:40:08;13.70;1.00
4826;DHT22;2427;50.934;6.776;2022-10-16T06:42:33;13.70;1.00
4826;DHT22;2427;50.934;6.776;2022-10-16T06:44:59;13.90;1.00
4826;DHT22;2427;50.934;6.776;2022-10-16T06:47:24;13.90;1.00
4826;DHT22;2427;50.934;6.776;2022-10-16T06:49:50;14.00;1.00
4826;DHT22;2427;50.934;6.776;2022-10-16T06:52:15;14.00;1.00
4826;DHT22;2427;50.934;6.776;2022-10-16T06:54:41;14.10;1.00
4826;DHT22;2427;50.934;6.776;2022-10-16T06:57:07;14.10;1.00
4826;DHT22;2427;50.934;6.776;2022-10-16T06:59:32;14.20;1.00
4826;DHT22;2427;50.934;6.776;2022-10-16T07:01:58;14.20;1.00
4826;DHT22;2427;50.934;6.776;2022-10-16T07:04:23;14.30;1.00
4826;DHT22;2427;50.934;6.776;2022-10-16T07:06:49;14.30;1.00
4826;DHT22;2427;50.934;6.776;2022-10-16T07:09:16;14.40;1.00
4826;DHT22;2427;50.934;6.776;2022-10-16T07:11:42;14.40;1.00
4826;DHT22;2427;50.934;6.776;2022-10-16T07:14:16;14.50;1.00
4826;DHT22;2427;50.934;6.776;2022-10-16T07:16:43;14.50;1.00
4826;DHT22;2427;50.934;6.776;2022-10-16T07:19:08;14.60;1.00
4826;DHT22;2427;50.934;6.776;2022-10-16T07:21:34;14.70;1.00
4826;DHT22;2427;50.934;6.776;2022-10-16T07:24:05;14.70;1.00
4826;DHT22;2427;50.934;6.776;2022-10-16T07:26:34;14.80;1.00
4826;DHT22;2427;50.934;6.776;2022-10-16T07:29:01;14.90;1.00
4826;DHT22;2427;50.934;6.776;2022-10-16T07:31:27;14.90;99.90
4826;DHT22;2427;50.934;6.776;2022-10-16T07:33:53;14.90;99.90
4826;DHT22;2427;50.934;6.776;2022-10-16T07:36:20;14.80;1.00
4826;DHT22;2427;50.934;6.776;2022-10-16T07:38:46;14.80;1.00
4826;DHT22;2427;50.934;6.776;2022-10-16T07:41:17;14.70;1.00
4826;DHT22;2427;50.934;6.776;2022-10-16T07:43:47;14.70;1.00
4826;DHT22;2427;50.934;6.776;2022-10-16T07:46:13;14.60;1.00
4826;DHT22;2427;50.934;6.776;2022-10-16T07:48:38;14.60;1.00
4826;DHT22;2427;50.934;6.776;2022-10-16T07:51:05;14.50;1.00
4826;DHT22;2427;50.934;6.776;2022-10-16T07:53:31;14.50;1.00
4826;DHT22;2427;50.934;6.776;2022-10-16T07:56:02;14.50;1.00
4826;DHT22;2427;50.934;6.776;2022-10-16T07:58:28;14.40;1.00
4826;DHT22;2427;50.934;6.776;2022-10-16T08:00:54;14.40;1.00
4826;DHT22;2427;50.934;6.776;2022-10-16T08:03:20;14.40;1.00
4826;DHT22;2427;50.934;6.776;2022-10-16T08:05:46;14.50;1.00
4826;DHT22;2427;50.934;6.776;2022-10-16T08:08:16;14.50;1.00
4826;DHT22;2427;50.934;6.776;2022-10-16T08:10:43;14.60;1.00
4826;DHT22;2427;50.934;6.776;2022-10-16T08:13:09;14.70;1.00
4826;DHT22;2427;50.934;6.776;2022-10-16T08:15:34;14.80;1.00
4826;DHT22;2427;50.934;6.776;2022-10-16T08:18:03;15.00;1.00
4826;DHT22;2427;50.934;6.776;2022-10-16T08:20:30;15.10;1.00
4826;DHT22;2427;50.934;6.776;2022-10-16T08:22:56;15.30;99.90
4826;DHT22;2427;50.934;6.776;2022-10-16T08:25:22;15.30;99.90
4826;DHT22;2427;50.934;6.776;2022-10-16T08:27:49;15.50;99.90
4826;DHT22;2427;50.934;6.776;2022-10-16T08:30:15;15.50;99.90
4826;DHT22;2427;50.934;6.776;2022-10-16T08:32:41;15.60;99.90
4826;DHT22;2427;50.934;6.776;2022-10-16T08:35:08;15.70;99.90
4826;DHT22;2427;50.934;6.776;2022-10-16T08:37:35;15.80;99.90
4826;DHT22;2427;50.934;6.776;2022-10-16T08:40:01;15.90;84.70
4826;DHT22;2427;50.934;6.776;2022-10-16T08:47:54;16.10;1.00
4826;DHT22;2427;50.934;6.776;2022-10-16T08:50:24;16.10;1.00
4826;DHT22;2427;50.934;6.776;2022-10-16T08:52:51;16.20;99.90
4826;DHT22;2427;50.934;6.776;2022-10-16T08:55:51;16.20;28.30
4826;DHT22;2427;50.934;6.776;2022-10-16T08:58:28;16.20;1.00
4826;DHT22;2427;50.934;6.776;2022-10-16T09:00:57;16.30;99.90
4826;DHT22;2427;50.934;6.776;2022-10-16T09:03:26;16.40;99.90
4826;DHT22;2427;50.934;6.776;2022-10-16T09:06:02;16.40;99.90
4826;DHT22;2427;50.934;6.776;2022-10-16T09:08:45;16.50;84.70
4826;DHT22;2427;50.934;6.776;2022-10-16T09:16:46;16.70;1.00
4826;DHT22;2427;50.934;6.776;2022-10-16T09:19:20;16.70;1.00
4826;DHT22;2427;50.934;6.776;2022-10-16T09:21:46;16.80;1.00
4826;DHT22;2427;50.934;6.776;2022-10-16T09:24:14;16.80;1.00
4826;DHT22;2427;50.934;6.776;2022-10-16T09:26:41;16.90;1.00
4826;DHT22;2427;50.934;6.776;2022-10-16T09:29:12;17.00;1.00
4826;DHT22;2427;50.934;6.776;2022-10-16T09:31:38;17.10;1.00
4826;DHT22;2427;50.934;6.776;2022-10-16T09:34:05;17.20;99.90
4826;DHT22;2427;50.934;6.776;2022-10-16T09:36:40;17.20;1.00
4826;DHT22;2427;50.934;6.776;2022-10-16T09:39:09;17.30;1.00
4826;DHT22;2427;50.934;6.776;2022-10-16T09:41:37;17.30;1.00
4826;DHT22;2427;50.934;6.776;2022-10-16T09:44:13;17.50;99.90
4826;DHT22;2427;50.934;6.776;2022-10-16T09:46:40;17.50;99.90
4826;DHT22;2427;50.934;6.776;2022-10-16T09:49:22;17.50;84.00
4826;DHT22;2427;50.934;6.776;2022-10-16T09:51:48;17.40;99.90
4826;DHT22;2427;50.934;6.776;2022-10-16T09:54:17;17.50;99.90
4826;DHT22;2427;50.934;6.776;2022-10-16T09:56:43;17.60;99.90
4826;DHT22;2427;50.934;6.776;2022-10-16T10:01:38;17.80;99.90
4826;DHT22;2427;50.934;6.776;2022-10-16T10:04:05;17.90;99.90
4826;DHT22;2427;50.934;6.776;2022-10-16T10:06:37;18.00;60.60
4826;DHT22;2427;50.934;6.776;2022-10-16T10:11:44;18.40;1.00
4826;DHT22;2427;50.934;6.776;2022-10-16T10:14:20;18.50;1.00
4826;DHT22;2427;50.934;6.776;2022-10-16T10:16:47;18.80;1.00
4826;DHT22;2427;50.934;6.776;2022-10-16T10:19:15;19.00;1.00
4826;DHT22;2427;50.934;6.776;2022-10-16T10:21:40;19.30;1.00
4826;DHT22;2427;50.934;6.776;2022-10-16T10:24:13;19.50;1.00
4826;DHT22;2427;50.934;6.776;2022-10-16T10:26:44;19.50;1.00
4826;DHT22;2427;50.934;6.776;2022-10-16T10:31:48;19.70;1.00
4826;DHT22;2427;50.934;6.776;2022-10-16T10:34:38;19.80;1.00
4826;DHT22;2427;50.934;6.776;2022-10-16T10:46:03;19.80;1.00
4826;DHT22;2427;50.934;6.776;2022-10-16T10:48:43;19.80;1.00
4826;DHT22;2427;50.934;6.776;2022-10-16T10:54:07;20.10;99.90
4826;DHT22;2427;50.934;6.776;2022-10-16T10:56:47;20.10;99.90
4826;DHT22;2427;50.934;6.776;2022-10-16T11:05:14;20.70;99.90
4826;DHT22;2427;50.934;6.776;2022-10-16T11:10:57;20.50;99.90
4826;DHT22;2427;50.934;6.776;2022-10-16T11:13:38;20.40;99.90
4826;DHT22;2427;50.934;6.776;2022-10-16T11:16:21;20.30;99.90
4826;DHT22;2427;50.934;6.776;2022-10-16T11:21:23;20.10;99.90
4826;DHT22;2427;50.934;6.776;2022-10-16T11:23:57;20.20;99.90
4826;DHT22;2427;50.934;6.776;2022-10-16T11:26:27;20.70;99.90
4826;DHT22;2427;50.934;6.776;2022-10-16T11:28:55;20.90;99.90
4826;DHT22;2427;50.934;6.776;2022-10-16T11:34:19;21.20;99.90
4826;DHT22;2427;50.934;6.776;2022-10-16T11:39:31;21.80;99.90
4826;DHT22;2427;50.934;6.776;2022-10-16T11:42:18;22.30;99.90
4826;DHT22;2427;50.934;6.776;2022-10-16T11:47:44;23.10;99.90
4826;DHT22;2427;50.934;6.776;2022-10-16T11:50:14;23.60;99.90
4826;DHT22;2427;50.934;6.776;2022-10-16T11:55:42;23.50;99.90
4826;DHT22;2427;50.934;6.776;2022-10-16T11:58:27;23.50;99.90
4826;DHT22;2427;50.934;6.776;2022-10-16T12:06:40;27.30;99.90
4826;DHT22;2427;50.934;6.776;2022-10-16T12:09:15;27.70;99.90
4826;DHT22;2427;50.934;6.776;2022-10-16T12:11:41;26.90;99.90
4826;DHT22;2427;50.934;6.776;2022-10-16T12:14:19;26.70;99.90
4826;DHT22;2427;50.934;6.776;2022-10-16T12:16:56;27.00;99.90
4826;DHT22;2427;50.934;6.776;2022-10-16T12:19:24;26.40;99.90
4826;DHT22;2427;50.934;6.776;2022-10-16T12:21:52;26.20;99.90
4826;DHT22;2427;50.934;6.776;2022-10-16T12:26:53;26.00;99.90
4826;DHT22;2427;50.934;6.776;2022-10-16T12:29:40;25.50;99.90
4826;DHT22;2427;50.934;6.776;2022-10-16T12:34:53;24.70;99.90
4826;DHT22;2427;50.934;6.776;2022-10-16T12:39:56;23.90;99.90
4826;DHT22;2427;50.934;6.776;2022-10-16T12:44:51;25.30;99.90
4826;DHT22;2427;50.934;6.776;2022-10-16T12:47:21;27.00;99.90
4826;DHT22;2427;50.934;6.776;2022-10-16T12:49:52;28.80;99.90
4826;DHT22;2427;50.934;6.776;2022-10-16T12:52:35;30.70;99.90
4826;DHT22;2427;50.934;6.776;2022-10-16T12:55:00;31.60;99.90
4826;DHT22;2427;50.934;6.776;2022-10-16T13:03:20;29.00;99.90
4826;DHT22;2427;50.934;6.776;2022-10-16T13:14:07;31.10;99.90
4826;DHT22;2427;50.934;6.776;2022-10-16T13:22:05;30.30;99.90
4826;DHT22;2427;50.934;6.776;2022-10-16T13:24:42;28.90;99.90
4826;DHT22;2427;50.934;6.776;2022-10-16T13:30:12;29.60;99.90
4826;DHT22;2427;50.934;6.776;2022-10-16T13:32:39;31.30;99.90
4826;DHT22;2427;50.934;6.776;2022-10-16T13:35:28;33.80;99.90
4826;DHT22;2427;50.934;6.776;2022-10-16T13:38:15;35.10;99.90
4826;DHT22;2427;50.934;6.776;2022-10-16T13:40:51;36.40;99.90
4826;DHT22;2427;50.934;6.776;2022-10-16T13:43:19;36.90;99.90
4826;DHT22;2427;50.934;6.776;2022-10-16T13:46:15;36.50;99.90
4826;DHT22;2427;50.934;6.776;2022-10-16T13:48:41;36.80;99.90
4826;DHT22;2427;50.934;6.776;2022-10-16T13:51:15;36.70;99.90
4826;DHT22;2427;50.934;6.776;2022-10-16T13:53:42;35.00;99.90
4826;DHT22;2427;50.934;6.776;2022-10-16T13:56:12;33.20;99.90
4826;DHT22;2427;50.934;6.776;2022-10-16T13:58:38;33.20;99.90
4826;DHT22;2427;50.934;6.776;2022-10-16T14:01:24;34.20;99.90
4826;DHT22;2427;50.934;6.776;2022-10-16T14:03:51;34.60;99.90
4826;DHT22;2427;50.934;6.776;2022-10-16T14:06:20;34.10;99.90
4826;DHT22;2427;50.934;6.776;2022-10-16T14:09:07;32.40;99.90
4826;DHT22;2427;50.934;6.776;2022-10-16T14:11:44;30.90;99.90
4826;DHT22;2427;50.934;6.776;2022-10-16T14:14:12;29.50;99.90
4826;DHT22;2427;50.934;6.776;2022-10-16T14:16:40;28.20;99.90
4826;DHT22;2427;50.934;6.776;2022-10-16T14:19:20;27.20;99.90
4826;DHT22;2427;50.934;6.776;2022-10-16T14:21:47;26.50;99.90
4826;DHT22;2427;50.934;6.776;2022-10-16T14:24:39;25.90;99.90
4826;DHT22;2427;50.934;6.776;2022-10-16T14:32:33;24.50;99.90
4826;DHT22;2427;50.934;6.776;2022-10-16T14:34:59;24.00;99.90
4826;DHT22;2427;50.934;6.776;2022-10-16T14:37:27;23.70;99.90
4826;DHT22;2427;50.934;6.776;2022-10-16T14:39:54;23.40;99.90
4826;DHT22;2427;50.934;6.776;2022-10-16T14:42:22;23.20;99.90
4826;DHT22;2427;50.934;6.776;2022-10-16T14:44:52;22.90;99.90
4826;DHT22;2427;50.934;6.776;2022-10-16T14:47:21;22.60;99.90
4826;DHT22;2427;50.934;6.776;2022-10-16T14:49:50;22.50;99.90
4826;DHT22;2427;50.934;6.776;2022-10-16T14:52:16;22.50;99.90
4826;DHT22;2427;50.934;6.776;2022-10-16T14:54:42;22.40;99.90
4826;DHT22;2427;50.934;6.776;2022-10-16T14:57:19;22.30;99.90
4826;DHT22;2427;50.934;6.776;2022-10-16T14:59:45;22.20;99.90
4826;DHT22;2427;50.934;6.776;2022-10-16T15:04:40;21.90;99.90
4826;DHT22;2427;50.934;6.776;2022-10-16T15:07:07;21.80;99.90
4826;DHT22;2427;50.934;6.776;2022-10-16T15:09:33;21.70;99.90
4826;DHT22;2427;50.934;6.776;2022-10-16T15:11:59;21.70;99.90
4826;DHT22;2427;50.934;6.776;2022-10-16T15:14:24;21.60;99.90
4826;DHT22;2427;50.934;6.776;2022-10-16T15:16:50;21.60;99.90
4826;DHT22;2427;50.934;6.776;2022-10-16T15:19:15;21.40;99.90
4826;DHT22;2427;50.934;6.776;2022-10-16T15:21:41;21.30;99.90
4826;DHT22;2427;50.934;6.776;2022-10-16T15:24:13;21.10;99.90
4826;DHT22;2427;50.934;6.776;2022-10-16T15:26:41;20.90;99.90
4826;DHT22;2427;50.934;6.776;2022-10-16T15:29:06;20.80;99.90
4826;DHT22;2427;50.934;6.776;2022-10-16T15:31:33;20.60;99.90
4826;DHT22;2427;50.934;6.776;2022-10-16T15:33:58;20.50;99.90
4826;DHT22;2427;50.934;6.776;2022-10-16T15:36:31;20.30;1.00
4826;DHT22;2427;50.934;6.776;2022-10-16T15:38:59;20.20;99.90
4826;DHT22;2427;50.934;6.776;2022-10-16T15:41:24;20.10;1.00
4826;DHT22;2427;50.934;6.776;2022-10-16T15:43:51;20.00;1.00
4826;DHT22;2427;50.934;6.776;2022-10-16T15:46:19;19.90;1.00
4826;DHT22;2427;50.934;6.776;2022-10-16T15:48:45;19.80;1.00
4826;DHT22;2427;50.934;6.776;2022-10-16T15:51:11;19.70;1.00
4826;DHT22;2427;50.934;6.776;2022-10-16T15:53:37;19.60;1.00
4826;DHT22;2427;50.934;6.776;2022-10-16T15:56:05;19.50;1.00
4826;DHT22;2427;50.934;6.776;2022-10-16T15:58:31;19.40;1.00
4826;DHT22;2427;50.934;6.776;2022-10-16T16:00:57;19.30;1.00
4826;DHT22;2427;50.934;6.776;2022-10-16T16:03:25;19.20;1.00
4826;DHT22;2427;50.934;6.776;2022-10-16T16:05:51;19.20;1.00
4826;DHT22;2427;50.934;6.776;2022-10-16T16:08:17;19.10;1.00
4826;DHT22;2427;50.934;6.776;2022-10-16T16:10:43;19.00;1.00
4826;DHT22;2427;50.934;6.776;2022-10-16T16:13:08;18.90;1.00
4826;DHT22;2427;50.934;6.776;2022-10-16T16:15:34;18.80;3.20
4826;DHT22;2427;50.934;6.776;2022-10-16T16:17:59;18.70;58.60
4826;DHT22;2427;50.934;6.776;2022-10-16T16:20:27;18.70;51.60
4826;DHT22;2427;50.934;6.776;2022-10-16T16:22:53;18.60;99.90
4826;DHT22;2427;50.934;6.776;2022-10-16T16:25:18;18.50;99.90
4826;DHT22;2427;50.934;6.776;2022-10-16T16:27:44;18.50;99.90
4826;DHT22;2427;50.934;6.776;2022-10-16T16:30:11;18.40;99.90
4826;DHT22;2427;50.934;6.776;2022-10-16T16:32:37;18.40;99.90
4826;DHT22;2427;50.934;6.776;2022-10-16T16:35:03;18.40;99.90
4826;DHT22;2427;50.934;6.776;2022-10-16T16:37:28;18.40;99.90
4826;DHT22;2427;50.934;6.776;2022-10-16T16:39:54;18.30;99.90
4826;DHT22;2427;50.934;6.776;2022-10-16T16:42:24;18.30;99.90
4826;DHT22;2427;50.934;6.776;2022-10-16T16:44:49;18.30;99.90
4826;DHT22;2427;50.934;6.776;2022-10-16T16:47:16;18.20;99.90
4826;DHT22;2427;50.934;6.776;2022-10-16T16:49:41;18.20;99.90
4826;DHT22;2427;50.934;6.776;2022-10-16T16:52:07;18.10;99.90
4826;DHT22;2427;50.934;6.776;2022-10-16T16:54:32;18.20;99.90
4826;DHT22;2427;50.934;6.776;2022-10-16T16:56:58;18.10;99.90
4826;DHT22;2427;50.934;6.776;2022-10-16T16:59:23;18.10;99.90
4826;DHT22;2427;50.934;6.776;2022-10-16T17:01:49;18.10;99.90
4826;DHT22;2427;50.934;6.776;2022-10-16T17:04:15;18.10;99.90
4826;DHT22;2427;50.934;6.776;2022-10-16T17:06:41;18.10;99.90
4826;DHT22;2427;50.934;6.776;2022-10-16T17:09:07;18.00;99.90
4826;DHT22;2427;50.934;6.776;2022-10-16T17:11:33;18.00;99.90
4826;DHT22;2427;50.934;6.776;2022-10-16T17:13:59;18.00;99.90
4826;DHT22;2427;50.934;6.776;2022-10-16T17:16:35;18.00;1.00
4826;DHT22;2427;50.934;6.776;2022-10-16T17:19:06;18.00;1.00
4826;DHT22;2427;50.934;6.776;2022-10-16T17:21:32;18.00;1.00
4826;DHT22;2427;50.934;6.776;2022-10-16T17:23:58;17.90;1.00
4826;DHT22;2427;50.934;6.776;2022-10-16T17:26:24;17.90;1.00
4826;DHT22;2427;50.934;6.776;2022-10-16T17:28:54;17.90;1.00
4826;DHT22;2427;50.934;6.776;2022-10-16T17:31:24;17.90;1.00
4826;DHT22;2427;50.934;6.776;2022-10-16T17:33:50;17.90;1.00
4826;DHT22;2427;50.934;6.776;2022-10-16T17:36:16;17.90;1.00
4826;DHT22;2427;50.934;6.776;2022-10-16T17:38:42;17.80;1.00
4826;DHT22;2427;50.934;6.776;2022-10-16T17:41:22;17.80;1.00
4826;DHT22;2427;50.934;6.776;2022-10-16T17:43:48;17.80;1.00
4826;DHT22;2427;50.934;6.776;2022-10-16T17:46:16;17.80;1.00
4826;DHT22;2427;50.934;6.776;2022-10-16T17:48:45;17.80;1.00
4826;DHT22;2427;50.934;6.776;2022-10-16T17:51:13;17.80;1.00
4826;DHT22;2427;50.934;6.776;2022-10-16T17:53:39;17.70;1.00
4826;DHT22;2427;50.934;6.776;2022-10-16T17:56:10;17.70;1.00
4826;DHT22;2427;50.934;6.776;2022-10-16T17:58:37;17.70;1.00
4826;DHT22;2427;50.934;6.776;2022-10-16T18:01:13;17.70;1.00
4826;DHT22;2427;50.934;6.776;2022-10-16T18:03:39;17.70;1.00
4826;DHT22;2427;50.934;6.776;2022-10-16T18:06:05;17.70;1.00
4826;DHT22;2427;50.934;6.776;2022-10-16T18:08:30;17.60;1.00
4826;DHT22;2427;50.934;6.776;2022-10-16T18:10:56;17.70;1.00
4826;DHT22;2427;50.934;6.776;2022-10-16T18:13:21;17.60;1.00
4826;DHT22;2427;50.934;6.776;2022-10-16T18:15:47;17.60;1.00
4826;DHT22;2427;50.934;6.776;2022-10-16T18:18:23;17.60;1.00
4826;DHT22;2427;50.934;6.776;2022-10-16T18:20:58;17.60;1.00
4826;DHT22;2427;50.934;6.776;2022-10-16T18:23:25;17.60;1.00
4826;DHT22;2427;50.934;6.776;2022-10-16T18:25:51;17.60;1.00